Impacts TAF Board INFO
FOR SITUATIONAL AWARENESS. NOT TO BE USED FOR FLIGHT PLANNING PURPOSES.
IDs:

KBOS - Boston/Logan Intl, MA, US

Issued at 2321 UTC 24 Feb 2018
Updated at 0154 UTC 25 Feb 2018
Potential Impact None Slight Moderate High
Time<<25/14Z 25/15Z 25/16Z 25/17Z 25/18Z 25/19Z 25/20Z 25/21Z 25/22Z 25/23Z 26/00Z 26/01Z 26/02Z>>
Type PRVL PRVL PRVL PRVL PRVL PRVL PRVL PRVL PRVL PRVL PRVL PRVL PRVL
VIS 2 2 2 2 1 1 1 1 1 >6 >6 >6 >6
CIG 15 15 15 15 8 8 8 8 8 8 8 8 8
Cover OVC OVC OVC OVC OVC OVC OVC OVC OVC OVC OVC OVC OVC
FltCat IFR IFR IFR IFR IFR IFR IFR IFR IFR IFR IFR IFR IFR
WX -RA -RA -RA -RA -RA -RA -RA -RA -RA -- -- -- --
WDir 100 100 100 100 110 110 110 110 110 40 40 40 330
WSpd 11 11 11 11 13 13 13 13 13 7 7 7 5
WGst 21 21 21 21 27 27 27 27 27 -- -- -- --

Raw TAF
KBOS 242321Z 2500/2606 36006KT P6SM SCT050 BKN100
  FM250800 06009KT P6SM BKN070
  FM251100 09010G18KT 4SM -PLRA OVC030
  FM251400 10011G21KT 2SM -RA OVC015
  FM251800 11013G27KT 1SM -RA OVC008
  FM252300 04007KT P6SM OVC008
  FM260200 33005KT P6SM OVC008
  FM260400 31005KT P6SM BKN045


METAR Board
Radar Display
Forecast Discussion

FOR SITUATIONAL AWARENESS. NOT TO BE USED FOR FLIGHT PLANNING PURPOSES.